Main page
METAR-TAF:

METAR-TAF

Airports :

Pago Pago International Airport

Pago Pago, United States Minor Outlying Islands

latitude: 14-20S, longitude: 170-43W, elevation: 3 m

Current weather observation

The report was made 40 minutes ago, at 22:50 UTC
Wind 5 kt from variable directions
Temperature 30°C
Humidity 75%
Pressure 1009 hPa
Visibility: 19.3 km
Few clouds at a height of 1600 ft, Towering cumulus.
Scattered clouds at a height of 4000 ft
Broken clouds at a height of 11000 ft
showers in vicinity

METAR: NSTU 212250Z VRB05KT 12SM VCSH FEW016TCU SCT040 BKN110 30/25 A2979 RMK VCSH NE-E TCU W-N-E SLP088 T03000250

Time: 12:30 (23:30 UTC)

Forecast

The report was made 5 hours and 57 minutes ago, at 17:33 UTC
Forecast valid from 21 at 18 UTC to 22 at 18 UTC
Wind 4 kt from variable directions
Visibility: 10 km
Scattered clouds at a height of 1800 ft
Scattered clouds at a height of 4000 ft
Broken clouds at a height of 20000 ft
showers in vicinity

TAF: NSTU 211733Z 2118/2218 VRB04KT P6SM VCSH SCT018 SCT040 BKN200

Weather observations and forecasts of more than 4000 airports (METAR and TAF reports).

The available stations are represented by yellow and red dots on the map.

Hover mouse over dot to see the name of the station.

Then click to see weather observations and forecasts.

To change the map : click on the green buttons with a black cross to zoom in, on the green button with a dash to zoom out, or on the green arrows for adjacent maps.


METAR-TAF: